30 septembre 2022

Temps Code Temps Temp. Vue Base cloud Vent METAR/SPECI
18:30
V
19 °C 10 km+ - 280° 280° 10 kt METAR LFBE 301630Z AUTO 28010KT CAVOK 19/07 Q1016 NOSIG
18:00
V
19 °C 10 km+ - 280° 280° 8 kt METAR LFBE 301600Z AUTO 28008KT 230V310 CAVOK 19/07 Q1015 NOSIG
17:30
V
19 °C 10 km+ - 260° 260° 9 kt METAR LFBE 301530Z AUTO 26009KT 230V290 CAVOK 19/07 Q1015 NOSIG
17:00
V
19 °C 10 km+ - 270° 270° 9 kt METAR LFBE 301500Z AUTO 27009KT CAVOK 19/07 Q1015 NOSIG
16:30
V
20 °C 10 km+ - 260° 260° 9 kt METAR LFBE 301430Z AUTO 26009KT CAVOK 20/08 Q1015 NOSIG
16:00
V
19 °C 10 km+ - 280° 280° 5 kt METAR LFBE 301400Z AUTO 28005KT 230V340 CAVOK 19/07 Q1015 NOSIG
15:30
V
19 °C 10 km+ - 280° 280° 10 kt METAR LFBE 301330Z AUTO 28010KT 9999 FEW049 SCT064 19/08 Q1015 NOSIG
15:00
V
19 °C 10 km+ 5.800 ft 270° 270° 6 kt METAR LFBE 301300Z AUTO 27006KT 240V310 9999 SCT047 BKN058 19/10 Q1015 NOSIG
14:30
V
17 °C 10 km+ - 290° 290° 7 kt METAR LFBE 301230Z AUTO 29007KT 260V330 9999 FEW040 SCT054 17/08 Q1015 NOSIG
14:00
V
18 °C 10 km+ - 300° 300° 7 kt METAR LFBE 301200Z AUTO 30007KT 230V010 9999 SCT040 18/09 Q1015 NOSIG
13:30
V
18 °C 10 km+ 4.200 ft 290° 290° 6 kt METAR LFBE 301130Z AUTO 29006KT 210V340 9999 SCT036 BKN042 18/09 Q1015 NOSIG
13:00
V
17 °C 10 km+ - Var Var 4 kt METAR LFBE 301100Z AUTO VRB04KT 9999 SCT034 17/09 Q1015 NOSIG
12:30
V
17 °C 10 km+ 3.100 ft Var Var 4 kt METAR LFBE 301030Z AUTO VRB04KT 9999 BKN031 BKN037 17/09 Q1014 NOSIG
12:00
V
16 °C 10 km+ - Var Var 3 kt METAR LFBE 301000Z AUTO VRB03KT 9999 FEW025 16/11 Q1014 NOSIG
11:30
V
15 °C 10 km+ - Var Var 3 kt METAR LFBE 300930Z AUTO VRB03KT 9999 FEW020 15/10 Q1014 NOSIG
11:00
V
14 °C 10 km+ - Var Var 2 kt METAR LFBE 300900Z AUTO VRB02KT CAVOK 14/11 Q1014 NOSIG
10:30
V
14 °C 10 km+ - Var Var 3 kt METAR LFBE 300830Z AUTO VRB03KT CAVOK 14/11 Q1013 NOSIG
10:00
V
12 °C 10 km+ - Var Var 2 kt METAR LFBE 300800Z AUTO VRB02KT CAVOK 12/11 Q1013 TEMPO 2000 BR BKN005
09:30
V
11 °C 10 km+ - Var Var 2 kt METAR LFBE 300730Z AUTO VRB02KT 9999 FEW005 11/11 Q1013 TEMPO 2000 BR BKN005
09:00
V
10 °C 10 km+ - 270° 270° 3 kt METAR LFBE 300700Z AUTO 27003KT CAVOK 10/10 Q1012 TEMPO 2000 BR VV///
08:30
V
10 °C 10 km+ - 270° 270° 3 kt METAR LFBE 300630Z AUTO 27003KT CAVOK 10/10 Q1012 TEMPO 2000 BR VV///
08:00
V
10 °C 10 km+ - 270° 270° 3 kt METAR LFBE 300600Z AUTO 27003KT CAVOK 10/10 Q1012 TEMPO 0400 FG VV///
07:30
M
10 °C 7 km 8.000 ft 270° 270° 3 kt METAR LFBE 300530Z AUTO 27003KT 7000 FEW001 SCT066 OVC080 10/10 Q1011 TEMPO 0400 FG VV///
07:00
V
9 °C 10 km+ - 280° 280° 5 kt METAR LFBE 300500Z AUTO 28005KT CAVOK 09/09 Q1011 TEMPO 0400 FG VV///
06:30
V
9 °C 10 km+ - 230° 230° 3 kt METAR LFBE 300430Z AUTO 23003KT CAVOK 09/09 Q1010 TEMPO 0400 FG VV///
06:00
V
10 °C 10 km+ - 270° 270° 4 kt METAR LFBE 300400Z AUTO 27004KT CAVOK 10/10 Q1010
05:30
V
9 °C 10 km+ - 280° 280° 5 kt METAR LFBE 300330Z AUTO 28005KT 9999 FEW003 SCT086 09/09 Q1010
05:00
I
10 °C 1,6 km - Var Var 2 kt METAR LFBE 300300Z AUTO VRB02KT 9999 1600 NSC 10/09 Q1009
04:30
V
10 °C 10 km+ - 280° 280° 3 kt METAR LFBE 300230Z AUTO 28003KT CAVOK 10/10 Q1009
04:00
V
10 °C 10 km+ - 240° 240° 3 kt METAR LFBE 300200Z AUTO 24003KT CAVOK 10/10 Q1009
03:30
V
11 °C 10 km+ - 280° 280° 3 kt METAR LFBE 300130Z AUTO 28003KT CAVOK 11/10 Q1009
03:00
V
11 °C 10 km+ - Var Var 1 kt METAR LFBE 300100Z AUTO VRB01KT CAVOK 11/10 Q1009 BECMG 2000 BR
02:30
V
11 °C 10 km+ - Var 000° 0 kt METAR LFBE 300030Z AUTO 00000KT CAVOK 11/10 Q1009 BECMG 2000 BR
02:00
V
11 °C 10 km+ - 190° 190° 1 kt METAR LFBE 300000Z AUTO 19001KT CAVOK 11/10 Q1008 BECMG 2000 BR
01:30
V
11 °C 10 km+ - 230° 230° 2 kt METAR LFBE 292330Z AUTO 23002KT CAVOK 11/10 Q1008 BECMG 2000 BR
01:00
V
10 °C 10 km+ - 220° 220° 3 kt METAR LFBE 292300Z AUTO 22003KT CAVOK 10/10 Q1008
00:30
V
11 °C 10 km+ - 280° 280° 6 kt METAR LFBE 292230Z AUTO 28006KT CAVOK 11/10 Q1008
00:00
V
11 °C 10 km+ - Var Var 2 kt METAR LFBE 292200Z AUTO VRB02KT 9999 //////CB 11/11 Q1008

29 septembre 2022

Temps Code Temps Temp. Vue Base cloud Vent METAR/SPECI
23:30
V
11 °C 10 km+ - 240° 240° 3 kt METAR LFBE 292130Z AUTO 24003KT 9999 //////TCU 11/11 Q1008
23:00
V
10 °C 10 km+ - 270° 270° 5 kt METAR LFBE 292100Z AUTO 27005KT 9999 ///TCU 10/10 Q1007
22:30
V
10 °C 10 km+ 9.600 ft 270° 270° 5 kt METAR LFBE 292030Z AUTO 27005KT 9999 FEW003 BKN096 10/10 Q1007
22:00
L
11 °C 750 m - 270° 270° 3 kt METAR LFBE 292000Z AUTO 27003KT 1000 0750 R27/1700D BCFG FEW004 11/10 Q1006 TEMPO 4000 SHRA BKN020TCU
21:30
I
11 °C 3,5 km - 260° 260° 3 kt METAR LFBE 291930Z AUTO 26003KT 3500 BR NSC 11/11 Q1006 TEMPO SHRA BKN020TCU
21:00
L
11 °C 600 m - Var 000° 0 kt METAR LFBE 291900Z AUTO 00000KT 0700 0600 R27/1000U FG NSC 11/10 Q1005 TEMPO 4000 SHRA BKN020TCU
20:30
V
12 °C 10 km+ - 240° 240° 3 kt METAR LFBE 291830Z AUTO 24003KT CAVOK 12/12 Q1005 TEMPO 4000 SHRA BKN020TCU
20:00
V
13 °C 10 km+ 24.000 ft 260° 260° 3 kt METAR LFBE 291800Z AUTO 26003KT 9999 FEW009 SCT054 BKN240 13/12 Q1005 TEMPO 4000 SHRA BKN020TCU
19:30
V
14 °C 10 km+ 7.400 ft 250° 250° 2 kt METAR LFBE 291730Z AUTO 25002KT 9999 SCT010 SCT060 BKN074 14/13 Q1005 TEMPO 4000 SHRA BKN020TCU
19:00
V
14 °C 10 km+ - Var Var 2 kt METAR LFBE 291700Z AUTO VRB02KT 9999 ///TCU 14/13 Q1004 BECMG BKN040
18:30
V
14 °C 10 km+ 7.800 ft 250° 250° 3 kt METAR LFBE 291630Z AUTO 25003KT 9999 FEW047/// SCT058/// OVC078/// ///TCU 14/13 Q1004 BECMG BKN040
18:00
V
14 °C 10 km+ 5.800 ft Var Var 2 kt METAR LFBE 291600Z AUTO VRB02KT 9999 FEW042/// OVC058/// //////CB 14/12 Q1004 BECMG BKN040
17:30
V
14 °C 10 km+ 3.800 ft 260° 260° 4 kt METAR LFBE 291530Z AUTO 26004KT 220V300 9999 BKN038/// BKN046/// BKN054/// //////CB 14/12 Q1004 BECMG SCT010 BKN030
17:00
V
14 °C 10 km+ - 220° 220° 5 kt METAR LFBE 291500Z AUTO 22005KT 9999 -RA ///CB 14/12 Q1003 BECMG SCT010 BKN030
16:30
M
14 °C 7 km 5.600 ft 250° 250° 6 kt METAR LFBE 291430Z AUTO 25006KT 7000 RA FEW036/// SCT046/// BKN056/// //////CB 14/13 Q1003 BECMG NSW SCT010 BKN030
16:00
M
15 °C 7 km 4.300 ft 320° 320° 6 kt METAR LFBE 291400Z AUTO 32006KT 260V360 7000 +RA FEW016/// BKN043/// BKN050/// //////CB 15/12 Q1003 TEMPO 3000 SHRA BECMG SCT010 BKN030
15:30
M
16 °C 10 km+ 2.300 ft 310° 310° 6 kt METAR LFBE 291330Z AUTO 31006KT 9999 RA BKN023/// BKN043/// BKN054/// ///CB 16/12 Q1003 TEMPO 3000 SHRA BECMG SCT010 BKN030
15:00
V
18 °C 10 km+ 3.800 ft 220° 220° 3 kt METAR LFBE 291300Z AUTO 22003KT 170V300 9999 FEW022/// SCT028/// BKN038/// //////CB 18/12 Q1003 TEMPO 3000 SHRA
14:30
M
17 °C 10 km+ 1.900 ft Var Var 1 kt METAR LFBE 291230Z AUTO VRB01KT 9999 BKN019/// BKN027/// BKN054/// ///TCU 17/12 Q1003 TEMPO 3000 SHRA FEW010CB BKN015TCU
14:00
M
16 °C 10 km+ 1.200 ft Var Var 2 kt METAR LFBE 291200Z AUTO VRB02KT 9999 BKN012 BKN017 BKN035 16/13 Q1003 TEMPO 3000 SHRA FEW010CB BKN015TCU
13:30
M
15 °C 10 km+ 1.100 ft Var Var 2 kt METAR LFBE 291130Z AUTO VRB02KT 9999 BKN011/// OVC042/// //////CB 15/12 Q1003 TEMPO 4000 SHRA BKN020TCU
13:00
V
15 °C 10 km+ 4.000 ft Var Var 3 kt METAR LFBE 291100Z AUTO VRB03KT 9999 FEW009/// BKN040/// OVC054/// ///CB 15/13 Q1003 TEMPO 4000 SHRA
12:30
V
14 °C 10 km+ 3.400 ft 040° 040° 4 kt METAR LFBE 291030Z AUTO 04004KT 9999 FEW009/// OVC034/// //////CB 14/13 Q1004 TEMPO 4000 SHRA
12:00
M
14 °C 8 km 1.200 ft 340° 340° 5 kt METAR LFBE 291000Z AUTO 34005KT 320V020 8000 -RA BKN012/// BKN021/// BKN028/// //////CB 14/12 Q1004 TEMPO 4000 SHRA BKN020TCU
11:30
M
15 °C 10 km+ 2.400 ft Var Var 3 kt METAR LFBE 290930Z AUTO VRB03KT 9999 FEW008/// SCT014/// BKN024/// //////CB 15/13 Q1004 TEMPO 4000 SHRA
11:00
M
14 °C 10 km+ 2.800 ft 310° 310° 4 kt METAR LFBE 290900Z AUTO 31004KT 280V350 9999 FEW008/// SCT019/// OVC028/// //////TCU 14/13 Q1004 TEMPO 4000 SHRA
10:30
I
13 °C 4,9 km 700 ft 250° 250° 6 kt METAR LFBE 290830Z AUTO 25006KT 4900 -RA BR BKN007/// BKN014/// OVC020/// //////TCU 13/12 Q1004 TEMPO SHRA BKN020TCU
10:00
I
14 °C 10 km+ 800 ft 290° 290° 3 kt METAR LFBE 290800Z AUTO 29003KT 220V360 9999 BKN008 BKN016 OVC027 14/13 Q1003 TEMPO 4000 SHRA BKN020TCU
09:30
I
13 °C 10 km+ 800 ft Var Var 1 kt METAR LFBE 290730Z AUTO VRB01KT 9999 BKN008/// BKN030/// OVC039/// //////TCU 13/13 Q1003 TEMPO 4000 SHRA OVC003
09:00
V
13 °C 10 km+ 4.200 ft Var Var 2 kt METAR LFBE 290700Z AUTO VRB02KT 9999 FEW010 SCT033 BKN042 13/13 Q1003 TEMPO 3000 -RADZ OVC003
08:30
V
13 °C 10 km+ 7.400 ft 220° 220° 3 kt METAR LFBE 290630Z AUTO 22003KT 9999 FEW004/// BKN074/// BKN084/// //////TCU 13/12 Q1003 TEMPO 3000 -RADZ OVC007
08:00
M
13 °C 10 km+ 2.500 ft Var Var 3 kt METAR LFBE 290600Z AUTO VRB03KT 9999 -RA FEW014/// BKN025/// BKN030/// //////TCU 13/13 Q1003 TEMPO 3000 -RADZ OVC007
07:30
V
13 °C 10 km+ 3.700 ft 300° 300° 3 kt METAR LFBE 290530Z AUTO 30003KT 250V330 9999 FEW007 SCT023 BKN037 13/13 Q1004 TEMPO 4000 RADZ BKN004
07:00
I
13 °C 10 km+ 600 ft Var Var 1 kt METAR LFBE 290500Z AUTO VRB01KT 9999 BKN006/// OVC010/// //////TCU 13/13 Q1004 TEMPO 0750 FG VV///
06:30
I
13 °C 10 km+ 900 ft Var 000° 0 kt METAR LFBE 290430Z AUTO 00000KT 9999 OVC009/// //////TCU 13/13 Q1004 TEMPO 0750 FG VV///
06:00
I
13 °C 10 km+ 800 ft Var Var 3 kt METAR LFBE 290400Z AUTO VRB03KT 9999 BKN008/// OVC012/// //////TCU 13/13 Q1004 TEMPO 0750 FG VV///
05:30
M
13 °C 10 km+ 1.200 ft 100° 100° 3 kt METAR LFBE 290330Z AUTO 10003KT 9999 -RA BKN012 BKN024 BKN058 13/13 Q1004 TEMPO 0750 FG VV///
05:00
V
12 °C 10 km+ 4.800 ft 020° 020° 3 kt METAR LFBE 290300Z AUTO 02003KT 9999 SCT022/// SCT035/// BKN048/// ///TCU 12/12 Q1004 TEMPO 2000 BR BKN002
04:30
V
13 °C 10 km+ 3.300 ft 220° 220° 3 kt METAR LFBE 290230Z AUTO 22003KT 9999 SCT025/// BKN033/// BKN040/// ///TCU 13/12 Q1004 TEMPO 2000 BR BKN002
04:00
V
12 °C 10 km+ 3.200 ft Var 000° 0 kt METAR LFBE 290200Z AUTO 00000KT 9999 BKN032 BKN039 BKN050 12/12 Q1004 TEMPO 2000 BR BKN002 BECMG 27010KT
03:30
V
13 °C 10 km+ 3.700 ft 240° 240° 2 kt METAR LFBE 290130Z AUTO 24002KT 9999 SCT028 BKN037 BKN050 13/12 Q1005 TEMPO 2000 BR BKN002
03:00
V
13 °C 10 km+ 5.000 ft 240° 240° 3 kt METAR LFBE 290100Z AUTO 24003KT 9999 FEW030 BKN050 BKN066 13/12 Q1005 NOSIG
02:30
V
13 °C 10 km+ 4.600 ft 260° 260° 3 kt METAR LFBE 290030Z AUTO 26003KT 9999 FEW029 BKN046 OVC060 13/13 Q1005 NOSIG
02:00
V
13 °C 10 km+ 5.200 ft 280° 280° 2 kt METAR LFBE 290000Z AUTO 28002KT 9999 FEW033 OVC052 13/13 Q1005 NOSIG
01:30
V
13 °C 10 km+ 3.100 ft 270° 270° 5 kt METAR LFBE 282330Z AUTO 27005KT 9999 BKN031 BKN058 BKN150 13/13 Q1005
01:00
V
13 °C 10 km+ 6.400 ft 260° 260° 6 kt METAR LFBE 282300Z AUTO 26006KT 9999 FEW030 BKN064 BKN160 13/13 Q1006
00:30
V
14 °C 10 km+ 14.000 ft 270° 270° 7 kt METAR LFBE 282230Z AUTO 27007KT 9999 FEW017 BKN140 BKN160 14/13 Q1006
00:00
V
14 °C 10 km+ 6.000 ft 270° 270° 8 kt METAR LFBE 282200Z AUTO 27008KT 9999 SCT014 SCT021 BKN060 14/13 Q1006

28 septembre 2022

Temps Code Temps Temp. Vue Base cloud Vent METAR/SPECI
23:30
M
14 °C 10 km+ 1.600 ft 280° 280° 7 kt METAR LFBE 282130Z AUTO 28007KT 9999 BKN016 BKN048 OVC056 14/14 Q1006
23:00
M
14 °C 10 km+ 2.100 ft 270° 270° 11 kt METAR LFBE 282100Z AUTO 27011KT 9999 FEW011/// SCT016/// BKN021/// //////TCU 14/14 Q1006
22:30
I
15 °C 4,3 km 1.100 ft 260° 260° 14 kt METAR LFBE 282030Z AUTO 26014KT 4300 -RA BR BKN011/// BKN019/// BKN028/// //////CB 15/14 Q1005
22:00
M
15 °C 7 km 3.500 ft 250° 250° 11 kt METAR LFBE 282000Z AUTO 25011KT 220V280 7000 -RA FEW012/// SCT027/// BKN035/// //////CB 15/14 Q1005 TEMPO 4000 SHRA BKN010 SCT020CB BKN025TCU
21:30
V
15 °C 10 km+ 8.600 ft 250° 250° 10 kt METAR LFBE 281930Z AUTO 25010KT 9999 FEW044 BKN086 15/13 Q1005 TEMPO 4000 SHRA BKN010 SCT020CB BKN025TCU
21:00
V
15 °C 10 km+ - 260° 260° 12 kt METAR LFBE 281900Z AUTO 26012KT CAVOK 15/13 Q1005 TEMPO 29015G30KT 4000 SHRA BKN010 SCT020CB BKN025TCU
20:30
V
15 °C 10 km+ 6.200 ft 260° 260° 15 kt METAR LFBE 281830Z AUTO 26015KT 9999 FEW028 BKN062 BKN072 15/14 Q1005 TEMPO 29015G30KT 4000 SHRA BKN010 SCT020CB BKN025TCU
20:00
V
16 °C 10 km+ - 250° 250° 12 kt METAR LFBE 281800Z AUTO 25012KT 9999 FEW029/// //////TCU 16/13 Q1005 TEMPO 29015G30KT 4000 SHRA BKN010 SCT020CB BKN025TCU
19:30
M
16 °C 10 km+ 2.800 ft 260° 260° 15 kt METAR LFBE 281730Z AUTO 26015KT 9999 FEW021/// BKN028/// BKN064/// //////TCU 16/14 Q1005 TEMPO 29015G30KT 4000 SHRA BKN010 SCT020CB BKN025TCU
19:00
V
17 °C 10 km+ - 270° 270° 14 kt METAR LFBE 281700Z AUTO 27014KT 9999 FEW024/// SCT043/// ///TCU 17/13 Q1005 TEMPO 29015G30KT 4000 SHRA BKN010 SCT020CB BKN025TCU
18:30
V
17 °C 10 km+ 8.800 ft 270° 270° 14 kt METAR LFBE 281630Z AUTO 27014KT 9999 FEW026/// SCT058/// BKN088/// ///CB 17/15 Q1005 TEMPO 29015G30KT 4000 SHRA BKN010 SCT020CB BKN025TCU
18:00
V
18 °C 10 km+ 4.600 ft 280° 280° 16 kt METAR LFBE 281600Z AUTO 28016KT 9999 RA FEW035/// BKN046/// BKN058/// ///TCU 18/13 Q1005 TEMPO 29015G30KT 4000 SHRA BKN010 SCT020CB BKN025TCU
17:30
V
20 °C 10 km+ 8.200 ft 280° 280° 17 kt METAR LFBE 281530Z AUTO 28017KT 9999 FEW036/// BKN082/// ///CB 20/12 Q1004 TEMPO 29015G30KT 4000 SHRA BKN010 SCT020CB BKN025TCU
17:00
V
19 °C 10 km+ 5.200 ft 300° 300° 19 kt METAR LFBE 281500Z AUTO 30019KT 9999 SCT043 BKN052 BKN064 19/12 Q1005 TEMPO 29015G30KT 4000 SHRA BKN010 SCT020CB BKN025TCU
Données plus anciennes

Nous et des tiers suivons ton comportement sur Internet sur notre site Web à l'aide de cookies. Si tu continues, nous supposons que tu acceptes notre politique en matière de cookies. Apprendre plus